createdAt,value
2022-11-18T00:01:33.284Z,2.60
2022-11-18T00:04:18.752Z,2.77
2022-11-18T00:07:04.378Z,3.43
2022-11-18T00:09:49.638Z,3.20
2022-11-18T00:12:53.263Z,2.90
2022-11-18T00:18:24.209Z,3.37
2022-11-18T00:21:11.715Z,3.07
2022-11-18T00:23:57.197Z,2.83
2022-11-18T00:26:42.681Z,3.17
2022-11-18T00:29:28.542Z,3.00
2022-11-18T00:32:14.091Z,3.00
2022-11-18T00:34:59.400Z,3.00
2022-11-18T00:37:44.663Z,2.90
2022-11-18T00:40:30.107Z,3.33
2022-11-18T00:43:15.354Z,2.60
2022-11-18T00:46:01.114Z,2.80
2022-11-18T00:48:46.568Z,2.60
2022-11-18T00:51:31.984Z,2.80
2022-11-18T00:54:17.684Z,3.00
2022-11-18T00:57:04.568Z,2.83
2022-11-18T00:59:50.240Z,2.80
2022-11-18T01:02:35.812Z,2.73
2022-11-18T01:05:21.411Z,2.63
2022-11-18T01:08:09.281Z,3.00
2022-11-18T01:10:54.711Z,3.00
2022-11-18T01:13:40.200Z,2.80
2022-11-18T01:16:27.995Z,2.80
2022-11-18T01:19:13.760Z,2.70
2022-11-18T01:22:03.486Z,2.90
2022-11-18T01:24:49.083Z,2.87
2022-11-18T01:27:34.276Z,2.77
2022-11-18T01:30:19.818Z,2.70
2022-11-18T01:33:06.370Z,2.80
2022-11-18T01:35:51.998Z,2.87
2022-11-18T01:38:37.256Z,2.73
2022-11-18T01:41:25.670Z,2.87
2022-11-18T01:44:48.594Z,2.80
2022-11-18T01:47:42.403Z,3.03
2022-11-18T01:50:29.434Z,3.00
2022-11-18T01:53:30.822Z,2.47
2022-11-18T01:56:24.256Z,2.57
2022-11-18T01:59:13.565Z,2.58
2022-11-18T02:02:01.496Z,2.80
2022-11-18T02:04:50.041Z,2.50
2022-11-18T02:07:42.923Z,2.73
2022-11-18T02:10:28.608Z,2.80
2022-11-18T02:13:14.927Z,2.40
2022-11-18T02:16:20.668Z,2.30
2022-11-18T02:19:29.229Z,2.43
2022-11-18T02:22:23.757Z,2.40
2022-11-18T02:25:31.637Z,2.60
2022-11-18T02:28:35.292Z,2.73
2022-11-18T02:31:41.731Z,2.45
2022-11-18T02:34:53.485Z,2.70
2022-11-18T02:38:02.636Z,2.27
2022-11-18T02:41:03.568Z,2.80
2022-11-18T02:44:06.076Z,2.60
2022-11-18T02:46:58.578Z,2.30
2022-11-18T02:49:49.404Z,2.40
2022-11-18T02:52:37.902Z,2.50
2022-11-18T02:55:25.626Z,2.63
2022-11-18T02:58:12.612Z,2.40
2022-11-18T03:01:00.576Z,2.50
2022-11-18T03:03:46.524Z,2.60
2022-11-18T03:06:37.930Z,2.47
2022-11-18T03:09:29.412Z,2.23
2022-11-18T03:12:46.786Z,2.47
2022-11-18T03:15:40.237Z,2.47
2022-11-18T03:18:37.167Z,2.25
2022-11-18T03:21:35.673Z,2.23
2022-11-18T03:24:28.211Z,2.40
2022-11-18T03:27:17.710Z,2.30
2022-11-18T03:30:08.427Z,2.60
2022-11-18T03:33:04.567Z,2.33
2022-11-18T03:35:53.770Z,2.40
2022-11-18T03:38:46.236Z,2.30
2022-11-18T03:41:36.593Z,2.33
2022-11-18T03:44:29.093Z,2.43
2022-11-18T03:47:27.341Z,2.30
2022-11-18T03:50:24.325Z,2.23
2022-11-18T03:53:11.110Z,2.60
2022-11-18T03:56:14.220Z,2.73
2022-11-18T03:59:13.212Z,2.57
2022-11-18T04:07:58.915Z,2.60
2022-11-18T04:10:59.975Z,2.67
2022-11-18T04:13:45.547Z,2.53
2022-11-18T04:16:31.023Z,2.57
2022-11-18T04:19:16.426Z,2.73
2022-11-18T04:22:01.688Z,3.00
2022-11-18T04:24:47.006Z,2.73
2022-11-18T04:27:32.292Z,3.03
2022-11-18T04:30:19.323Z,2.77
2022-11-18T04:33:05.281Z,2.30
2022-11-18T04:35:50.522Z,2.70
2022-11-18T04:38:35.718Z,2.40
2022-11-18T04:41:20.953Z,3.07
2022-11-18T04:44:13.179Z,2.80
2022-11-18T04:47:04.401Z,2.90
2022-11-18T04:49:49.909Z,2.90
2022-11-18T04:52:35.224Z,2.50
2022-11-18T04:55:20.789Z,2.53
2022-11-18T04:58:06.484Z,2.40
2022-11-18T05:00:51.887Z,2.73
2022-11-18T05:03:37.100Z,2.83
2022-11-18T05:06:23.274Z,2.73
2022-11-18T05:09:09.469Z,2.73
2022-11-18T05:12:13.927Z,2.70
2022-11-18T05:14:59.534Z,2.50
2022-11-18T05:17:45.372Z,2.57
2022-11-18T05:20:31.037Z,2.57
2022-11-18T05:23:16.351Z,2.40
2022-11-18T05:26:10.254Z,2.83
2022-11-18T05:28:55.972Z,2.70
2022-11-18T05:31:41.538Z,2.20
2022-11-18T05:34:26.959Z,2.97
2022-11-18T05:37:12.464Z,3.17
2022-11-18T05:39:58.140Z,3.43
2022-11-18T05:43:01.999Z,3.43
2022-11-18T05:45:51.392Z,4.30
2022-11-18T05:48:37.109Z,4.50
2022-11-18T05:51:22.511Z,4.70
2022-11-18T05:54:09.692Z,5.00
2022-11-18T05:56:55.048Z,4.50
2022-11-18T05:59:40.296Z,5.00
2022-11-18T06:02:25.753Z,5.00
2022-11-18T06:05:12.229Z,4.67
2022-11-18T06:07:58.523Z,4.70
2022-11-18T06:10:47.068Z,4.63
2022-11-18T06:13:50.326Z,5.27
2022-11-18T06:16:40.973Z,5.18
2022-11-18T06:19:26.886Z,4.70
2022-11-18T06:22:12.824Z,4.73
2022-11-18T06:24:58.437Z,4.57
2022-11-18T06:27:44.718Z,4.80
2022-11-18T06:35:48.558Z,4.50
2022-11-18T06:38:33.942Z,4.27
2022-11-18T06:41:19.331Z,4.23
2022-11-18T06:44:04.560Z,4.50
2022-11-18T06:46:55.704Z,4.50
2022-11-18T06:49:41.250Z,4.50
2022-11-18T06:52:26.516Z,4.53
2022-11-18T06:55:11.843Z,4.17
2022-11-18T06:57:57.251Z,4.63
2022-11-18T07:00:42.862Z,4.17
2022-11-18T07:03:28.122Z,4.30
2022-11-18T07:06:16.277Z,4.50
2022-11-18T07:09:03.084Z,4.80
2022-11-18T07:11:48.428Z,5.30
2022-11-18T07:14:33.705Z,5.10
2022-11-18T07:17:19.218Z,5.20
2022-11-18T07:20:04.604Z,5.47
2022-11-18T07:22:52.903Z,5.27
2022-11-18T07:25:44.030Z,5.63
2022-11-18T07:28:31.541Z,5.53
2022-11-18T07:31:19.538Z,5.60
2022-11-18T07:34:04.741Z,6.50
2022-11-18T07:36:50.039Z,6.03
2022-11-18T07:39:35.412Z,6.33
2022-11-18T07:42:20.700Z,5.57
2022-11-18T07:45:06.263Z,5.90
2022-11-18T07:47:51.929Z,5.37
2022-11-18T07:50:37.418Z,5.63
2022-11-18T07:53:22.497Z,5.60
2022-11-18T07:56:09.246Z,5.60
2022-11-18T07:58:55.931Z,6.33
2022-11-18T08:01:41.347Z,5.40
2022-11-18T08:04:26.527Z,5.10
2022-11-18T08:07:11.845Z,5.83
2022-11-18T08:09:57.273Z,5.10
2022-11-18T08:12:42.445Z,5.70
2022-11-18T08:15:27.723Z,5.90
2022-11-18T08:18:13.943Z,5.37
2022-11-18T08:21:04.046Z,5.43
2022-11-18T08:23:55.054Z,6.00
2022-11-18T08:26:40.641Z,5.53
2022-11-18T08:29:27.740Z,5.30
2022-11-18T08:32:13.391Z,5.23
2022-11-18T08:34:59.201Z,5.37
2022-11-18T08:37:44.685Z,5.20
2022-11-18T08:40:29.917Z,4.93
2022-11-18T08:43:15.344Z,5.23
2022-11-18T08:46:00.534Z,4.93
2022-11-18T08:48:45.827Z,5.20
2022-11-18T08:51:31.060Z,5.37
2022-11-18T09:02:15.578Z,5.00
2022-11-18T09:05:00.818Z,4.57
2022-11-18T09:07:46.225Z,4.77
2022-11-18T09:10:31.378Z,4.73
2022-11-18T09:13:47.483Z,4.20
2022-11-18T09:16:27.671Z,5.10
2022-11-18T09:19:45.627Z,4.70
2022-11-18T09:22:21.183Z,4.87
2022-11-18T09:25:07.162Z,4.97
2022-11-18T09:27:52.752Z,4.93
2022-11-18T09:30:38.016Z,4.90
2022-11-18T09:33:23.849Z,4.20
2022-11-18T09:36:19.810Z,4.53
2022-11-18T09:39:05.689Z,4.50
2022-11-18T09:42:28.375Z,4.57
2022-11-18T09:45:30.887Z,4.70
2022-11-18T09:48:19.566Z,4.30
2022-11-18T09:51:05.884Z,4.37
2022-11-18T09:53:51.165Z,4.60
2022-11-18T09:56:36.565Z,4.17
2022-11-18T09:59:24.927Z,4.40
2022-11-18T10:02:13.468Z,4.30
2022-11-18T10:05:14.970Z,4.40
2022-11-18T10:08:23.740Z,4.10
2022-11-18T10:11:20.073Z,4.50
2022-11-18T10:14:35.057Z,4.07
2022-11-18T10:17:29.556Z,3.57
2022-11-18T10:20:47.723Z,4.37
2022-11-18T10:23:57.211Z,4.13
2022-11-18T10:26:42.590Z,3.80
2022-11-18T10:29:27.935Z,3.80
2022-11-18T10:32:18.308Z,4.10
2022-11-18T10:35:03.882Z,4.20
2022-11-18T10:38:07.713Z,4.50
2022-11-18T10:41:08.714Z,4.37
2022-11-18T10:43:56.329Z,4.70
2022-11-18T10:46:42.445Z,4.17
2022-11-18T10:49:27.894Z,4.10
2022-11-18T10:52:14.433Z,3.93
2022-11-18T10:55:14.001Z,4.20
2022-11-18T10:58:18.267Z,4.17
2022-11-18T11:01:18.955Z,4.23
2022-11-18T11:04:20.210Z,4.23
2022-11-18T11:07:36.736Z,4.50
2022-11-18T11:10:23.516Z,4.67
2022-11-18T11:13:15.715Z,5.47
2022-11-18T11:16:05.543Z,4.30
2022-11-18T11:19:00.038Z,4.47
2022-11-18T11:21:45.601Z,4.23
2022-11-18T11:24:30.948Z,4.17
2022-11-18T11:30:38.795Z,3.93
2022-11-18T11:33:58.227Z,4.00
2022-11-18T11:37:20.962Z,3.93
2022-11-18T11:40:37.704Z,3.80
2022-11-18T11:44:07.869Z,4.03
2022-11-18T11:47:48.136Z,4.37
2022-11-18T11:51:05.166Z,3.70
2022-11-18T11:54:24.618Z,4.03
2022-11-18T11:57:43.485Z,3.60
2022-11-18T12:00:33.367Z,3.47
2022-11-18T12:03:51.711Z,3.67
2022-11-18T12:06:37.858Z,3.67
2022-11-18T12:09:32.352Z,3.50
2022-11-18T12:12:34.345Z,3.33
2022-11-18T12:15:57.272Z,3.27
2022-11-18T12:18:52.872Z,4.13
2022-11-18T12:21:47.806Z,3.70
2022-11-18T12:24:43.522Z,4.00
2022-11-18T12:27:30.149Z,3.73
2022-11-18T12:30:19.398Z,4.03
2022-11-18T12:33:17.417Z,3.87
2022-11-18T12:36:02.674Z,3.80
2022-11-18T12:38:48.414Z,3.67
2022-11-18T12:41:58.552Z,3.70
2022-11-18T12:44:46.655Z,3.00
2022-11-18T12:47:41.251Z,3.70
2022-11-18T12:50:48.084Z,3.60
2022-11-18T12:53:40.093Z,4.00
2022-11-18T12:56:34.726Z,4.63
2022-11-18T12:59:32.881Z,5.70
2022-11-18T13:02:27.932Z,8.47
2022-11-18T13:05:21.753Z,10.00
2022-11-18T13:08:15.599Z,28.87
2022-11-18T13:11:29.007Z,36.23
2022-11-18T13:14:44.311Z,41.50
2022-11-18T13:17:51.810Z,40.07
2022-11-18T13:20:38.921Z,45.07
2022-11-18T13:23:49.934Z,73.43
2022-11-18T13:26:35.855Z,88.57
2022-11-18T13:29:43.558Z,78.30
2022-11-18T13:32:29.643Z,90.70
2022-11-18T13:35:17.574Z,81.53
2022-11-18T13:38:03.422Z,77.37
2022-11-18T13:41:04.630Z,63.50
2022-11-18T13:43:54.045Z,64.17
2022-11-18T13:46:41.823Z,62.47
2022-11-18T13:49:47.431Z,46.10
2022-11-18T13:52:42.016Z,50.13
2022-11-18T13:55:30.171Z,48.13
2022-11-18T13:58:18.738Z,47.30
2022-11-18T14:01:13.676Z,47.67
2022-11-18T14:04:09.644Z,48.10
2022-11-18T14:07:34.947Z,46.47
2022-11-18T14:10:31.401Z,45.87
2022-11-18T14:13:26.580Z,45.87
2022-11-18T14:16:17.969Z,45.77
2022-11-18T14:19:04.005Z,47.23
2022-11-18T14:21:50.037Z,47.60
2022-11-18T14:24:35.868Z,47.73
2022-11-18T14:27:41.338Z,46.07
2022-11-18T14:30:35.779Z,45.67
2022-11-18T14:33:22.988Z,45.90
2022-11-18T14:36:17.755Z,44.50
2022-11-18T14:39:26.289Z,41.77
2022-11-18T14:42:13.174Z,41.97
2022-11-18T14:44:58.726Z,41.83
2022-11-18T14:47:44.953Z,41.57
2022-11-18T14:50:30.752Z,43.10
2022-11-18T14:53:16.565Z,38.97
2022-11-18T14:56:01.986Z,40.17
2022-11-18T14:58:47.211Z,38.77
2022-11-18T15:01:32.693Z,35.67
2022-11-18T15:04:20.579Z,36.43
2022-11-18T15:07:06.329Z,23.87
2022-11-18T15:09:52.229Z,20.77
2022-11-18T15:12:37.436Z,27.20
2022-11-18T15:15:23.645Z,26.10
2022-11-18T15:18:09.414Z,25.93
2022-11-18T15:20:54.585Z,23.37
2022-11-18T15:23:40.479Z,23.30
2022-11-18T15:26:28.625Z,22.37
2022-11-18T15:29:22.845Z,23.17
2022-11-18T15:32:08.394Z,21.13
2022-11-18T15:34:54.001Z,20.03
2022-11-18T15:37:40.136Z,21.17
2022-11-18T15:40:25.266Z,21.43
2022-11-18T15:43:10.481Z,21.23
2022-11-18T15:45:59.787Z,19.57
2022-11-18T15:48:45.588Z,21.07
2022-11-18T15:51:31.168Z,19.27
2022-11-18T15:54:16.949Z,19.17
2022-11-18T15:57:02.423Z,19.33
2022-11-18T15:59:48.100Z,19.13
2022-11-18T16:02:33.738Z,19.50
2022-11-18T16:05:19.040Z,18.17
2022-11-18T16:08:04.428Z,19.83
2022-11-18T16:11:14.346Z,17.97
2022-11-18T16:14:05.703Z,17.73
2022-11-18T16:16:54.164Z,18.03
2022-11-18T16:19:39.484Z,16.90
2022-11-18T16:22:24.901Z,17.77
2022-11-18T16:25:10.366Z,17.73
2022-11-18T16:27:59.549Z,16.73
2022-11-18T16:31:09.727Z,17.70
2022-11-18T16:33:55.076Z,17.03
2022-11-18T16:36:42.352Z,18.27
2022-11-18T16:39:28.556Z,17.70
2022-11-18T16:42:14.198Z,18.40
2022-11-18T16:44:59.404Z,18.13
2022-11-18T16:47:44.889Z,17.97
2022-11-18T16:50:30.360Z,17.40
2022-11-18T16:53:15.652Z,17.87
2022-11-18T16:56:03.991Z,17.87
2022-11-18T16:58:49.711Z,17.67
2022-11-18T17:01:35.595Z,18.57
2022-11-18T17:04:21.430Z,17.50
2022-11-18T17:07:07.026Z,18.27
2022-11-18T17:09:53.027Z,18.47
2022-11-18T17:12:38.924Z,19.20
2022-11-18T17:15:25.720Z,18.07
2022-11-18T17:18:10.851Z,19.37
2022-11-18T17:20:56.448Z,18.17
2022-11-18T17:23:41.816Z,17.73
2022-11-18T17:26:28.179Z,17.90
2022-11-18T17:29:13.917Z,18.10
2022-11-18T17:31:59.758Z,18.53
2022-11-18T17:34:44.975Z,17.83
2022-11-18T17:37:30.942Z,18.33
2022-11-18T17:40:16.691Z,18.17
2022-11-18T17:43:02.460Z,16.93
2022-11-18T17:45:52.591Z,17.17
2022-11-18T17:48:38.083Z,16.10
2022-11-18T17:51:24.638Z,16.23
2022-11-18T17:54:10.492Z,17.23
2022-11-18T17:56:56.186Z,17.27
2022-11-18T17:59:41.466Z,15.83
2022-11-18T18:02:27.278Z,15.90
2022-11-18T18:05:12.821Z,16.37
2022-11-18T18:07:59.170Z,15.63
2022-11-18T18:10:44.761Z,15.93
2022-11-18T18:13:48.818Z,16.63
2022-11-18T18:16:34.867Z,15.77
2022-11-18T18:19:22.459Z,16.20
2022-11-18T18:22:07.758Z,16.23
2022-11-18T18:24:53.307Z,16.20
2022-11-18T18:27:39.257Z,15.27
2022-11-18T18:30:24.800Z,16.40
2022-11-18T18:33:10.338Z,15.80
2022-11-18T18:36:00.817Z,14.20
2022-11-18T18:38:46.988Z,14.23
2022-11-18T18:41:32.960Z,14.73
2022-11-18T18:44:19.017Z,15.40
2022-11-18T18:47:04.796Z,15.80
2022-11-18T18:49:50.981Z,14.60
2022-11-18T18:52:36.600Z,14.27
2022-11-18T18:55:22.107Z,13.93
2022-11-18T18:58:07.302Z,14.70
2022-11-18T19:00:56.996Z,14.50
2022-11-18T19:03:44.431Z,14.50
2022-11-18T19:06:56.751Z,14.13
2022-11-18T19:09:39.850Z,13.43
2022-11-18T19:12:43.243Z,13.33
2022-11-18T19:18:14.404Z,13.07
2022-11-18T19:20:59.581Z,13.03
2022-11-18T19:23:44.921Z,12.83
2022-11-18T19:26:30.435Z,12.67
2022-11-18T19:29:16.150Z,11.97
2022-11-18T19:32:01.497Z,11.97
2022-11-18T19:34:46.698Z,12.80
2022-11-18T19:37:32.287Z,11.87
2022-11-18T19:40:18.102Z,11.70
2022-11-18T19:43:03.709Z,11.43
2022-11-18T19:45:52.331Z,11.57
2022-11-18T19:48:37.642Z,11.73
2022-11-18T19:51:23.606Z,11.77
2022-11-18T19:54:09.318Z,11.97
2022-11-18T19:56:54.483Z,10.93
2022-11-18T19:59:39.884Z,11.33
2022-11-18T20:02:25.041Z,10.63
2022-11-18T20:05:33.357Z,10.23
2022-11-18T20:08:24.113Z,10.57
2022-11-18T20:11:11.590Z,10.00
2022-11-18T20:13:56.965Z,10.40
2022-11-18T20:16:42.480Z,10.77
2022-11-18T20:19:28.109Z,10.23
2022-11-18T20:22:13.395Z,10.07
2022-11-18T20:24:59.431Z,10.10
2022-11-18T20:27:45.559Z,9.53
2022-11-18T20:30:30.806Z,9.73
2022-11-18T20:33:16.032Z,8.90
2022-11-18T20:36:22.260Z,8.87
2022-11-18T20:39:13.621Z,8.73
2022-11-18T20:42:17.727Z,8.47
2022-11-18T20:45:02.919Z,8.82
2022-11-18T20:47:48.208Z,7.83
2022-11-18T20:50:37.609Z,8.30
2022-11-18T20:53:25.432Z,8.67
2022-11-18T20:56:23.796Z,8.37
2022-11-18T20:59:09.014Z,7.87
2022-11-18T21:01:54.352Z,7.90
2022-11-18T21:04:40.092Z,8.03
2022-11-18T21:07:25.384Z,7.67
2022-11-18T21:10:10.765Z,7.70
2022-11-18T21:13:15.158Z,7.57
2022-11-18T21:16:01.664Z,7.80
2022-11-18T21:18:47.684Z,7.10
2022-11-18T21:21:45.136Z,7.47
2022-11-18T21:24:32.987Z,7.33
2022-11-18T21:27:18.192Z,6.83
2022-11-18T21:30:03.804Z,7.60
2022-11-18T21:32:49.605Z,7.37
2022-11-18T21:35:36.430Z,7.47
2022-11-18T21:38:21.958Z,6.83
2022-11-18T21:41:07.918Z,6.87
2022-11-18T21:44:08.971Z,6.63
2022-11-18T21:46:55.068Z,6.80
2022-11-18T21:49:40.367Z,6.70
2022-11-18T21:52:25.667Z,6.97
2022-11-18T21:55:10.980Z,6.37
2022-11-18T21:58:01.218Z,6.97
2022-11-18T22:00:48.122Z,6.37
2022-11-18T22:03:33.434Z,6.30
2022-11-18T22:06:19.388Z,6.60
2022-11-18T22:09:07.232Z,6.07
2022-11-18T22:11:52.955Z,6.60
2022-11-18T22:14:38.217Z,6.20
2022-11-18T22:17:23.465Z,6.30
2022-11-18T22:20:09.341Z,5.97
2022-11-18T22:22:55.050Z,7.00
2022-11-18T22:25:40.550Z,6.30
2022-11-18T22:28:26.197Z,6.20
2022-11-18T22:31:13.051Z,6.43
2022-11-18T22:33:58.613Z,6.40
2022-11-18T22:36:43.814Z,6.73
2022-11-18T22:39:29.388Z,6.47
2022-11-18T22:42:33.361Z,6.37
2022-11-18T22:45:18.769Z,6.82
2022-11-18T22:48:04.398Z,6.40
2022-11-18T22:51:00.668Z,6.00
2022-11-18T22:53:46.138Z,5.80
2022-11-18T22:56:31.736Z,6.13
2022-11-18T22:59:17.803Z,5.87
2022-11-18T23:02:03.149Z,6.00
2022-11-18T23:04:48.488Z,5.67
2022-11-18T23:07:33.974Z,6.00
2022-11-18T23:10:19.575Z,5.63
2022-11-18T23:13:23.333Z,5.67
2022-11-18T23:16:08.488Z,5.60
2022-11-18T23:18:53.957Z,5.73
2022-11-18T23:21:40.204Z,5.87
2022-11-18T23:24:25.557Z,5.63
2022-11-18T23:27:10.961Z,5.77
2022-11-18T23:29:56.118Z,5.23
2022-11-18T23:32:41.559Z,5.50
2022-11-18T23:35:26.753Z,5.70
2022-11-18T23:38:12.066Z,5.40
2022-11-18T23:41:00.218Z,6.00
2022-11-18T23:43:48.226Z,5.47
2022-11-18T23:46:34.515Z,5.47
2022-11-18T23:49:20.490Z,5.73
2022-11-18T23:52:06.607Z,5.70
2022-11-18T23:54:53.084Z,5.40
2022-11-18T23:57:38.667Z,5.70
